»·PEaware :: N5GL KSAC-KMRY

N5GL :: KSAC-KMRY

FLIGHT INFORMATION

Flight Status: Arrived
Operator: Privately registered:
United States
More flights under this callsign
Pilot: Georg L. (13308)
Aircraft: SOCATA TBM-900
(TBM9)
More flights by this aircraft type
Origin: KSAC Sacramento Executive
United States
Destination: KMRY Monterey Peninsula
United States
More flights between these airports :: More routes between these airports
Route: MOD V111 SNS
File this flight plan on PilotEdge
Remarks:
Altitude:
(Current/Filed)
19,000ft
Speed:
(Current/Filed)
301kts
Departed: 26-Sep-20 07:16 AM
Arrived: 26-Sep-20 07:58 AM
Distance/Time
Traveled:
117nm/0:42
Distance/Time
To Go:
Arrived

Flight Plot

Page will automatically refresh every two minutes.

Flight plan parsing failed; only flown route is shown


Map Options




Map Legend


Flown Route
Filed Route
Departure Airport
Arrival Airport
Navaid (VOR, NDB)
Fix

Horizontal Profiles

Position Reports

Time Latitude Longitude Heading Altitude Ground
Speed
26-Sep-20 06:58 38.513115 -121.497177 213 23ft 0kts
26-Sep-20 06:59 38.513115 -121.497177 213 23ft 0kts
26-Sep-20 07:00 38.513115 -121.497177 213 23ft 0kts
26-Sep-20 07:01 38.513115 -121.497177 213 23ft 0kts
26-Sep-20 07:02 38.513115 -121.497177 213 23ft 0kts
26-Sep-20 07:03 38.513115 -121.497177 213 23ft 0kts
26-Sep-20 07:03 38.513115 -121.497177 213 23ft 0kts
26-Sep-20 07:05 38.513115 -121.497177 213 23ft 0kts
26-Sep-20 07:06 38.513115 -121.497177 213 23ft 0kts
26-Sep-20 07:06 38.513115 -121.497177 213 23ft 0kts
26-Sep-20 07:08 38.513115 -121.497177 213 23ft 0kts
26-Sep-20 07:08 38.513115 -121.497177 213 23ft 0kts
26-Sep-20 07:09 38.513115 -121.497177 213 23ft 0kts
26-Sep-20 07:11 38.513115 -121.497177 213 23ft 0kts
26-Sep-20 07:11 38.513302 -121.496582 42 23ft 11kts
26-Sep-20 07:12 38.516863 -121.492705 33 23ft 21kts
26-Sep-20 07:13 38.519191 -121.490362 107 23ft 0kts
26-Sep-20 07:14 38.519047 -121.489606 109 23ft 12kts
26-Sep-20 07:15 38.502613 -121.502484 209 631ft 126kts
26-Sep-20 07:16 38.467522 -121.528029 183 2235ft 181kts
26-Sep-20 07:17 38.429164 -121.500069 148 4825ft 149kts
26-Sep-20 07:18 38.392736 -121.473856 151 7099ft 156kts
26-Sep-20 07:19 38.354208 -121.447407 151 9370ft 161kts
26-Sep-20 07:20 38.311724 -121.418418 153 11067ft 203kts
26-Sep-20 07:21 38.258096 -121.381975 154 12527ft 226kts
26-Sep-20 07:22 38.201940 -121.343866 154 14058ft 232kts
26-Sep-20 07:23 38.144282 -121.304819 155 15559ft 237kts
26-Sep-20 07:24 38.085425 -121.265040 156 16978ft 244kts
26-Sep-20 07:25 38.024908 -121.224209 156 18380ft 249kts
26-Sep-20 07:26 37.961343 -121.181474 155 19108ft 279kts
26-Sep-20 07:27 37.889422 -121.133079 155 19094ft 302kts
26-Sep-20 07:28 37.814249 -121.082663 155 19088ft 307kts
26-Sep-20 07:29 37.738476 -121.031974 154 19084ft 309kts
26-Sep-20 07:30 37.662287 -120.981127 154 19083ft 309kts
26-Sep-20 07:31 37.585708 -120.986555 211 19086ft 288kts
26-Sep-20 07:32 37.514923 -121.034175 212 19084ft 289kts
26-Sep-20 07:33 37.443989 -121.082152 212 19086ft 289kts
26-Sep-20 07:34 37.372686 -121.130303 212 18737ft 300kts
26-Sep-20 07:35 37.296946 -121.181313 211 17356ft 314kts
26-Sep-20 07:36 37.219788 -121.233161 211 15957ft 315kts
26-Sep-20 07:37 37.142804 -121.284769 211 14569ft 311kts
26-Sep-20 07:38 37.066815 -121.335596 210 13201ft 307kts
26-Sep-20 07:39 36.991793 -121.385659 210 11852ft 304kts
26-Sep-20 07:40 36.917834 -121.434903 210 10527ft 302kts
26-Sep-20 07:41 36.844199 -121.483822 210 9199ft 298kts
26-Sep-20 07:42 36.771292 -121.532149 210 7829ft 296kts
26-Sep-20 07:43 36.699025 -121.579946 210 6461ft 288kts
26-Sep-20 07:44 36.631048 -121.616075 158 5986ft 266kts
26-Sep-20 07:45 36.565660 -121.573323 153 5360ft 269kts
26-Sep-20 07:46 36.528775 -121.513515 68 5110ft 228kts
26-Sep-20 07:47 36.547819 -121.437482 68 5100ft 231kts
26-Sep-20 07:48 36.588016 -121.399769 321 5095ft 224kts
26-Sep-20 07:49 36.569882 -121.470520 236 5100ft 250kts
26-Sep-20 07:50 36.556580 -121.550475 280 5100ft 236kts
26-Sep-20 07:51 36.563275 -121.627715 282 4199ft 203kts
26-Sep-20 07:52 36.568649 -121.690061 284 3022ft 154kts
26-Sep-20 07:53 36.573304 -121.743412 280 1959ft 137kts
26-Sep-20 07:54 36.576623 -121.781973 276 1249ft 99kts
26-Sep-20 07:55 36.577712 -121.815612 283 640ft 93kts
26-Sep-20 07:56 36.585899 -121.841100 293 170ft 51kts
26-Sep-20 07:57 36.587326 -121.847875 293 170ft 0kts
26-Sep-20 07:58 36.588184 -121.850439 292 170ft 22kts
26-Sep-20 07:59 36.589182 -121.855320 237 170ft 10kts
26-Sep-20 08:00 36.588574 -121.855795 93 170ft 0kts
26-Sep-20 08:01 36.588574 -121.855795 93 170ft 0kts
26-Sep-20 08:02 36.588574 -121.855795 93 170ft 0kts
26-Sep-20 08:03 36.588574 -121.855795 93 170ft 0kts
26-Sep-20 08:04 36.588574 -121.855795 93 170ft 0kts

Navigation Log

Ident Type
Flight plan parsing failed, navigation log unavailable